createdAt,value
2019-04-29T00:01:43.585Z,72.67
2019-04-29T00:04:13.889Z,72.68
2019-04-29T00:06:44.326Z,72.69
2019-04-29T00:09:18.261Z,72.98
2019-04-29T00:11:48.956Z,73.01
2019-04-29T00:14:19.291Z,73.15
2019-04-29T00:17:01.236Z,72.96
2019-04-29T00:19:53.607Z,73.00
2019-04-29T00:22:23.898Z,72.93
2019-04-29T00:24:54.477Z,72.99
2019-04-29T00:27:27.913Z,73.15
2019-04-29T00:30:00.772Z,73.22
2019-04-29T00:32:33.265Z,73.34
2019-04-29T00:35:03.766Z,73.33
2019-04-29T00:37:52.028Z,73.48
2019-04-29T00:40:40.132Z,73.43
2019-04-29T00:43:34.623Z,73.53
2019-04-29T00:46:06.306Z,73.59
2019-04-29T00:48:36.806Z,73.50
2019-04-29T00:51:07.595Z,73.47
2019-04-29T00:53:40.796Z,73.56
2019-04-29T00:56:11.147Z,73.42
2019-04-29T00:58:42.042Z,73.51
2019-04-29T01:01:19.082Z,73.58
2019-04-29T01:03:49.508Z,73.61
2019-04-29T01:06:20.023Z,73.54
2019-04-29T01:08:50.564Z,73.65
2019-04-29T01:11:20.965Z,73.82
2019-04-29T01:13:51.277Z,73.95
2019-04-29T01:16:21.647Z,74.03
2019-04-29T01:18:51.999Z,74.25
2019-04-29T01:21:24.157Z,74.35
2019-04-29T01:23:55.984Z,74.57
2019-04-29T01:26:43.898Z,74.73
2019-04-29T01:29:15.507Z,74.83
2019-04-29T01:31:45.781Z,74.83
2019-04-29T01:34:21.110Z,74.88
2019-04-29T01:36:51.543Z,74.79
2019-04-29T01:39:35.522Z,74.79
2019-04-29T01:42:18.131Z,74.84
2019-04-29T01:44:48.806Z,74.95
2019-04-29T01:47:19.369Z,75.08
2019-04-29T01:49:49.817Z,75.06
2019-04-29T01:52:20.104Z,75.01
2019-04-29T01:55:02.251Z,75.20
2019-04-29T01:57:32.529Z,75.12
2019-04-29T02:00:02.884Z,75.06
2019-04-29T02:02:33.183Z,74.97
2019-04-29T02:05:04.360Z,74.99
2019-04-29T02:07:34.955Z,74.99
2019-04-29T02:10:13.916Z,75.13
2019-04-29T02:12:50.098Z,75.05
2019-04-29T02:15:20.683Z,75.11
2019-04-29T02:17:51.275Z,75.16
2019-04-29T02:20:21.613Z,75.15
2019-04-29T02:23:15.134Z,75.19
2019-04-29T02:25:46.533Z,75.29
2019-04-29T02:28:24.340Z,75.38
2019-04-29T02:30:55.128Z,75.43
2019-04-29T02:33:25.492Z,75.57
2019-04-29T02:35:55.768Z,75.49
2019-04-29T02:38:53.841Z,75.45
2019-04-29T02:41:45.665Z,75.54
2019-04-29T02:44:16.060Z,75.54
2019-04-29T02:46:46.380Z,75.52
2019-04-29T02:49:16.982Z,75.51
2019-04-29T02:51:50.873Z,75.59
2019-04-29T02:54:21.202Z,75.71
2019-04-29T02:57:03.897Z,75.89
2019-04-29T02:59:39.399Z,75.98
2019-04-29T03:02:29.038Z,76.04
2019-04-29T03:05:16.929Z,76.13
2019-04-29T03:07:49.720Z,76.31
2019-04-29T03:10:20.205Z,76.42
2019-04-29T03:12:50.590Z,76.60
2019-04-29T03:15:32.187Z,76.68
2019-04-29T03:18:02.881Z,76.72
2019-04-29T03:20:52.345Z,76.78
2019-04-29T03:23:25.658Z,76.83
2019-04-29T03:25:56.260Z,76.92
2019-04-29T03:28:35.697Z,77.00
2019-04-29T03:31:07.291Z,77.07
2019-04-29T03:33:37.695Z,77.16
2019-04-29T03:36:08.291Z,77.20
2019-04-29T03:38:38.853Z,77.31
2019-04-29T03:41:18.894Z,77.40
2019-04-29T03:43:50.883Z,77.50
2019-04-29T03:46:21.395Z,77.56
2019-04-29T03:48:51.919Z,77.62
2019-04-29T03:51:22.459Z,77.72
2019-04-29T03:53:53.539Z,77.79
2019-04-29T03:56:24.198Z,77.90
2019-04-29T03:58:54.941Z,78.04
2019-04-29T04:01:30.942Z,78.06
2019-04-29T04:04:08.411Z,78.06
2019-04-29T04:06:44.436Z,78.12
2019-04-29T04:09:31.724Z,78.08
2019-04-29T04:12:04.122Z,78.13
2019-04-29T04:14:44.006Z,78.16
2019-04-29T04:17:29.491Z,78.28
2019-04-29T04:19:59.939Z,78.45
2019-04-29T04:22:32.183Z,78.53
2019-04-29T04:25:02.695Z,78.63
2019-04-29T04:27:33.382Z,78.75
2019-04-29T04:30:04.264Z,78.75
2019-04-29T04:32:34.761Z,78.79
2019-04-29T04:35:05.277Z,78.93
2019-04-29T04:37:35.718Z,79.10
2019-04-29T04:40:08.665Z,79.16
2019-04-29T04:42:38.998Z,79.22
2019-04-29T04:45:11.273Z,79.21
2019-04-29T04:47:41.600Z,79.18
2019-04-29T04:50:12.444Z,78.76
2019-04-29T04:52:42.903Z,78.98
2019-04-29T04:55:25.308Z,78.92
2019-04-29T04:57:55.821Z,78.87
2019-04-29T05:00:28.047Z,78.79
2019-04-29T05:02:58.449Z,78.78
2019-04-29T05:05:28.928Z,78.77
2019-04-29T05:07:59.219Z,78.70
2019-04-29T05:10:29.760Z,78.60
2019-04-29T05:13:00.109Z,78.56
2019-04-29T05:15:37.126Z,78.53
2019-04-29T05:18:07.583Z,78.56
2019-04-29T05:20:38.003Z,78.61
2019-04-29T05:23:08.458Z,78.71
2019-04-29T05:25:40.433Z,78.79
2019-04-29T05:28:10.883Z,78.87
2019-04-29T05:30:41.299Z,79.07
2019-04-29T05:33:11.789Z,79.23
2019-04-29T05:36:07.087Z,79.38
2019-04-29T05:39:17.254Z,79.47
2019-04-29T05:41:53.520Z,79.62
2019-04-29T05:44:52.948Z,79.68
2019-04-29T05:47:30.711Z,79.70
2019-04-29T05:50:27.281Z,79.74
2019-04-29T05:53:25.676Z,79.77
2019-04-29T05:55:56.287Z,79.70
2019-04-29T05:58:37.638Z,79.49
2019-04-29T06:01:03.154Z,79.36
2019-04-29T06:03:37.960Z,79.23
2019-04-29T06:06:06.994Z,79.11
2019-04-29T06:08:39.303Z,78.98
2019-04-29T06:11:09.556Z,78.83
2019-04-29T06:13:40.136Z,78.64
2019-04-29T06:16:10.602Z,78.48
2019-04-29T06:18:41.684Z,78.26
2019-04-29T06:21:31.049Z,78.09
2019-04-29T06:24:04.499Z,78.02
2019-04-29T06:26:33.719Z,78.06
2019-04-29T06:29:06.010Z,78.19
2019-04-29T06:31:36.677Z,78.19
2019-04-29T06:34:07.489Z,78.18
2019-04-29T06:36:38.450Z,78.02
2019-04-29T06:39:20.676Z,77.99
2019-04-29T06:41:51.350Z,77.94
2019-04-29T06:44:22.163Z,77.83
2019-04-29T06:46:54.587Z,77.47
2019-04-29T06:49:25.579Z,76.77
2019-04-29T06:51:56.827Z,76.07
2019-04-29T06:54:27.491Z,75.83
2019-04-29T06:56:59.543Z,75.56
2019-04-29T06:59:37.546Z,74.94
2019-04-29T07:02:15.757Z,74.72
2019-04-29T07:04:46.561Z,74.33
2019-04-29T07:07:16.972Z,73.86
2019-04-29T07:09:47.388Z,73.57
2019-04-29T07:12:17.970Z,73.45
2019-04-29T07:14:48.672Z,72.94
2019-04-29T07:17:27.031Z,72.38
2019-04-29T07:20:12.726Z,72.01
2019-04-29T07:22:43.365Z,71.46
2019-04-29T07:25:31.333Z,71.32
2019-04-29T07:28:18.432Z,70.68
2019-04-29T07:31:01.059Z,69.99
2019-04-29T07:33:22.629Z,69.23
2019-04-29T07:35:53.396Z,68.89
2019-04-29T07:38:26.259Z,68.40
2019-04-29T07:40:58.308Z,67.96
2019-04-29T07:43:28.777Z,67.54
2019-04-29T07:46:20.764Z,66.80
2019-04-29T07:49:01.326Z,66.21
2019-04-29T07:51:24.180Z,66.01
2019-04-29T07:54:00.476Z,65.60
2019-04-29T07:57:05.654Z,64.93
2019-04-29T07:59:41.217Z,64.20
2019-04-29T08:02:20.636Z,63.70
2019-04-29T08:04:51.333Z,63.66
2019-04-29T08:07:53.626Z,63.68
2019-04-29T08:10:31.101Z,63.46
2019-04-29T08:13:02.229Z,63.38
2019-04-29T08:15:36.717Z,63.40
2019-04-29T08:18:11.316Z,63.05
2019-04-29T08:20:51.342Z,62.97
2019-04-29T08:23:33.126Z,62.85
2019-04-29T08:26:02.638Z,62.67
2019-04-29T08:28:31.819Z,62.47
2019-04-29T08:31:04.958Z,62.38
2019-04-29T08:33:57.885Z,62.23
2019-04-29T08:36:32.541Z,62.06
2019-04-29T08:39:08.767Z,62.27
2019-04-29T08:41:41.707Z,61.82
2019-04-29T08:44:41.356Z,61.32
2019-04-29T08:47:16.762Z,60.97
2019-04-29T08:49:47.148Z,60.11
2019-04-29T08:52:18.229Z,60.02
2019-04-29T08:54:50.696Z,59.31
2019-04-29T08:57:27.036Z,58.63
2019-04-29T08:59:58.079Z,58.15
2019-04-29T09:02:54.014Z,57.80
2019-04-29T09:05:24.401Z,57.42
2019-04-29T09:07:57.421Z,57.30
2019-04-29T09:10:27.311Z,57.19
2019-04-29T09:12:57.996Z,56.97
2019-04-29T09:15:28.440Z,54.50
2019-04-29T09:18:06.989Z,55.54
2019-04-29T09:20:39.658Z,56.49
2019-04-29T09:23:12.790Z,56.96
2019-04-29T09:26:03.273Z,57.11
2019-04-29T09:28:33.871Z,57.15
2019-04-29T09:31:22.612Z,56.93
2019-04-29T09:34:06.017Z,56.71
2019-04-29T09:36:28.650Z,56.54
2019-04-29T09:39:04.370Z,56.47
2019-04-29T09:42:08.159Z,56.52
2019-04-29T09:44:54.003Z,56.74
2019-04-29T09:47:24.688Z,57.00
2019-04-29T09:49:58.097Z,56.81
2019-04-29T09:52:28.673Z,56.55
2019-04-29T09:55:08.828Z,55.81
2019-04-29T09:57:39.551Z,55.53
2019-04-29T10:00:17.696Z,55.45
2019-04-29T10:02:56.817Z,55.97
2019-04-29T10:05:37.347Z,56.46
2019-04-29T10:08:17.702Z,56.70
2019-04-29T10:10:50.041Z,56.49
2019-04-29T10:13:20.713Z,56.31
2019-04-29T10:16:02.591Z,56.03
2019-04-29T10:18:38.083Z,55.88
2019-04-29T10:21:10.738Z,55.84
2019-04-29T10:23:41.208Z,55.85
2019-04-29T10:26:22.082Z,55.75
2019-04-29T10:28:57.100Z,56.15
2019-04-29T10:31:27.753Z,56.57
2019-04-29T10:33:58.436Z,56.53
2019-04-29T10:36:29.296Z,56.47
2019-04-29T10:39:04.948Z,56.63
2019-04-29T10:41:53.893Z,56.47
2019-04-29T10:44:32.786Z,56.26
2019-04-29T10:47:25.722Z,55.92
2019-04-29T10:50:10.555Z,56.23
2019-04-29T10:52:43.513Z,56.21
2019-04-29T10:55:13.550Z,56.18
2019-04-29T10:57:44.942Z,56.11
2019-04-29T11:00:36.276Z,55.99
2019-04-29T11:03:20.684Z,56.04
2019-04-29T11:06:00.627Z,56.18
2019-04-29T11:08:48.992Z,56.30
2019-04-29T11:11:23.336Z,56.58
2019-04-29T11:14:05.664Z,56.36
2019-04-29T11:16:46.136Z,55.92
2019-04-29T11:19:06.003Z,55.77
2019-04-29T11:21:38.873Z,55.20
2019-04-29T11:24:20.453Z,54.91
2019-04-29T11:27:15.928Z,54.86
2019-04-29T11:29:46.495Z,55.19
2019-04-29T11:32:30.433Z,55.37
2019-04-29T11:35:19.937Z,55.57
2019-04-29T11:38:10.328Z,55.43
2019-04-29T11:40:43.720Z,55.29
2019-04-29T11:43:15.526Z,55.01
2019-04-29T11:45:47.108Z,55.15
2019-04-29T11:48:17.749Z,55.43
2019-04-29T11:50:56.886Z,55.55
2019-04-29T11:53:32.277Z,55.89
2019-04-29T11:56:02.697Z,55.88
2019-04-29T11:58:45.434Z,55.96
2019-04-29T12:01:37.915Z,55.68
2019-04-29T12:03:59.099Z,56.28
2019-04-29T12:06:36.926Z,56.79
2019-04-29T12:09:30.342Z,56.78
2019-04-29T12:12:01.475Z,56.58
2019-04-29T12:14:52.712Z,57.06
2019-04-29T12:17:42.284Z,57.54
2019-04-29T12:20:22.843Z,57.91
2019-04-29T12:22:53.232Z,58.63
2019-04-29T12:25:27.390Z,59.05
2019-04-29T12:28:01.488Z,59.23
2019-04-29T12:30:37.967Z,59.52
2019-04-29T12:33:27.377Z,59.92
2019-04-29T12:36:07.523Z,60.62
2019-04-29T12:38:56.084Z,61.57
2019-04-29T12:41:49.103Z,62.49
2019-04-29T12:44:35.447Z,62.84
2019-04-29T12:47:38.224Z,63.22
2019-04-29T12:50:09.469Z,63.84
2019-04-29T12:52:39.934Z,64.41
2019-04-29T12:55:20.114Z,64.37
2019-04-29T12:57:55.200Z,64.35
2019-04-29T13:00:27.531Z,63.99
2019-04-29T13:03:17.785Z,63.79
2019-04-29T13:06:03.395Z,63.53
2019-04-29T13:08:48.010Z,63.57
2019-04-29T13:11:20.786Z,63.35
2019-04-29T13:13:55.477Z,63.21
2019-04-29T13:16:39.569Z,63.27
2019-04-29T13:19:46.112Z,63.57
2019-04-29T13:22:17.186Z,64.02
2019-04-29T13:24:48.286Z,64.45
2019-04-29T13:27:20.779Z,64.94
2019-04-29T13:29:51.225Z,65.16
2019-04-29T13:32:25.331Z,65.43
2019-04-29T13:35:10.634Z,65.50
2019-04-29T13:37:39.775Z,65.59
2019-04-29T13:40:11.295Z,65.62
2019-04-29T13:42:48.545Z,65.88
2019-04-29T13:45:42.798Z,66.34
2019-04-29T13:48:09.772Z,66.49
2019-04-29T13:50:46.945Z,66.56
2019-04-29T13:53:18.619Z,66.72
2019-04-29T13:55:50.104Z,66.91
2019-04-29T13:58:22.245Z,66.93
2019-04-29T14:01:22.117Z,66.79
2019-04-29T14:03:49.472Z,66.81
2019-04-29T14:06:20.173Z,67.06
2019-04-29T14:08:50.502Z,67.16
2019-04-29T14:11:21.890Z,67.20
2019-04-29T14:13:54.077Z,67.30
2019-04-29T14:16:24.586Z,67.66
2019-04-29T14:18:55.214Z,67.88
2019-04-29T14:21:34.165Z,68.04
2019-04-29T14:24:04.700Z,68.20
2019-04-29T14:26:36.881Z,68.31
2019-04-29T14:29:07.612Z,68.40
2019-04-29T14:31:37.992Z,68.44
2019-04-29T14:34:20.646Z,68.61
2019-04-29T14:36:51.335Z,68.59
2019-04-29T14:39:37.046Z,68.37
2019-04-29T14:42:09.401Z,68.29
2019-04-29T14:45:02.677Z,68.10
2019-04-29T14:47:46.670Z,67.96
2019-04-29T14:50:20.982Z,67.90
2019-04-29T14:52:50.650Z,67.78
2019-04-29T14:55:25.393Z,67.72
2019-04-29T14:57:55.082Z,67.68
2019-04-29T15:00:38.318Z,67.66
2019-04-29T15:03:08.929Z,67.35
2019-04-29T15:05:51.024Z,67.73
2019-04-29T15:08:21.652Z,67.80
2019-04-29T15:10:54.404Z,67.78
2019-04-29T15:13:26.072Z,67.86
2019-04-29T15:16:09.659Z,67.96
2019-04-29T15:18:57.831Z,68.08
2019-04-29T15:21:34.718Z,68.31
2019-04-29T15:24:06.881Z,68.56
2019-04-29T15:26:37.446Z,68.86
2019-04-29T15:29:08.437Z,69.56
2019-04-29T15:31:42.423Z,69.76
2019-04-29T15:34:14.459Z,69.89
2019-04-29T15:36:54.518Z,69.97
2019-04-29T15:39:46.202Z,70.03
2019-04-29T15:42:15.128Z,70.18
2019-04-29T15:44:45.558Z,70.30
2019-04-29T15:47:16.344Z,70.38
2019-04-29T15:50:06.652Z,70.44
2019-04-29T15:52:32.948Z,70.57
2019-04-29T15:55:03.490Z,70.65
2019-04-29T15:57:34.439Z,70.61
2019-04-29T16:00:20.577Z,70.62
2019-04-29T16:02:41.508Z,70.57
2019-04-29T16:05:30.624Z,70.62
2019-04-29T16:08:18.563Z,70.76
2019-04-29T16:11:06.400Z,70.84
2019-04-29T16:13:37.302Z,71.09
2019-04-29T16:16:19.805Z,71.12
2019-04-29T16:19:07.124Z,71.15
2019-04-29T16:21:32.163Z,71.25
2019-04-29T16:24:24.352Z,71.54
2019-04-29T16:26:35.140Z,71.73
2019-04-29T16:29:12.426Z,71.87
2019-04-29T16:32:02.317Z,71.91
2019-04-29T16:34:28.639Z,71.86
2019-04-29T16:37:00.682Z,71.76
2019-04-29T16:39:31.768Z,71.58
2019-04-29T16:42:33.718Z,71.43
2019-04-29T16:47:40.098Z,71.63
2019-04-29T16:50:10.685Z,71.76
2019-04-29T16:52:44.578Z,71.82
2019-04-29T16:55:14.307Z,71.80
2019-04-29T16:57:44.766Z,71.76
2019-04-29T17:00:36.864Z,71.68
2019-04-29T17:03:08.425Z,71.45
2019-04-29T17:05:39.093Z,71.28
2019-04-29T17:08:15.164Z,71.24
2019-04-29T17:10:52.419Z,71.16
2019-04-29T17:13:34.884Z,71.18
2019-04-29T17:16:08.188Z,71.24
2019-04-29T17:18:38.703Z,71.26
2019-04-29T17:21:09.175Z,71.40
2019-04-29T17:23:39.823Z,71.49
2019-04-29T17:26:10.577Z,71.58
2019-04-29T17:28:50.937Z,71.59
2019-04-29T17:31:58.019Z,71.60
2019-04-29T17:34:56.722Z,71.67
2019-04-29T17:35:19.354Z,71.44
2019-04-29T17:37:03.943Z,71.72
2019-04-29T17:39:34.391Z,71.85
2019-04-29T17:42:06.085Z,71.88
2019-04-29T17:44:45.811Z,71.87
2019-04-29T17:47:37.724Z,71.79
2019-04-29T17:50:32.532Z,71.76
2019-04-29T17:53:04.411Z,71.83
2019-04-29T17:55:45.287Z,71.91
2019-04-29T17:58:20.103Z,72.02
2019-04-29T18:01:08.246Z,72.08
2019-04-29T18:04:06.706Z,72.14
2019-04-29T18:06:41.629Z,72.14
2019-04-29T18:09:40.556Z,72.21
2019-04-29T18:12:22.522Z,72.23
2019-04-29T18:14:54.942Z,72.40
2019-04-29T18:17:31.306Z,72.43
2019-04-29T18:20:32.178Z,72.52
2019-04-29T18:23:26.892Z,72.68
2019-04-29T18:26:30.631Z,72.96
2019-04-29T18:29:03.447Z,73.06
2019-04-29T18:31:32.438Z,72.94
2019-04-29T18:34:05.607Z,72.83
2019-04-29T18:36:36.110Z,72.88
2019-04-29T18:39:10.209Z,72.89
2019-04-29T18:41:41.105Z,72.84
2019-04-29T18:44:30.790Z,72.82
2019-04-29T18:47:05.489Z,72.87
2019-04-29T18:49:36.302Z,72.90
2019-04-29T18:52:07.822Z,72.93
2019-04-29T18:54:44.988Z,72.90
2019-04-29T18:57:27.649Z,72.93
2019-04-29T18:59:58.909Z,73.03
2019-04-29T19:02:32.640Z,73.16
2019-04-29T19:05:14.928Z,73.23
2019-04-29T19:07:54.655Z,73.24
2019-04-29T19:10:31.637Z,73.30
2019-04-29T19:13:13.096Z,73.36
2019-04-29T19:15:47.351Z,73.51
2019-04-29T19:18:20.923Z,73.60
2019-04-29T19:20:54.194Z,73.66
2019-04-29T19:23:22.828Z,73.75
2019-04-29T19:25:56.624Z,73.78
2019-04-29T19:28:38.237Z,73.80
2019-04-29T19:31:09.817Z,73.87
2019-04-29T19:33:40.720Z,74.02
2019-04-29T19:36:17.421Z,74.07
2019-04-29T19:38:47.232Z,74.13
2019-04-29T19:41:18.169Z,74.19
2019-04-29T19:43:54.961Z,74.22
2019-04-29T19:46:36.883Z,74.31
2019-04-29T19:49:07.503Z,74.33
2019-04-29T19:51:35.094Z,74.33
2019-04-29T19:54:05.936Z,74.32
2019-04-29T19:56:43.409Z,74.39
2019-04-29T19:59:17.156Z,74.50
2019-04-29T20:01:49.669Z,74.63
2019-04-29T20:04:37.905Z,74.63
2019-04-29T20:07:12.084Z,74.78
2019-04-29T20:09:43.822Z,74.84
2019-04-29T20:12:17.488Z,75.02
2019-04-29T20:14:48.040Z,75.14
2019-04-29T20:17:38.022Z,75.40
2019-04-29T20:20:18.044Z,75.55
2019-04-29T20:22:51.248Z,75.68
2019-04-29T20:25:29.672Z,75.75
2019-04-29T20:28:05.452Z,75.91
2019-04-29T20:30:26.526Z,76.03
2019-04-29T20:33:12.665Z,76.10
2019-04-29T20:35:45.470Z,76.12
2019-04-29T20:38:15.723Z,76.20
2019-04-29T20:40:46.997Z,76.27
2019-04-29T20:43:20.679Z,76.29
2019-04-29T20:45:50.378Z,76.35
2019-04-29T20:48:21.022Z,76.49
2019-04-29T20:50:56.496Z,76.59
2019-04-29T20:53:39.687Z,76.65
2019-04-29T20:56:12.360Z,76.62
2019-04-29T20:58:40.029Z,76.62
2019-04-29T21:01:16.494Z,76.61
2019-04-29T21:03:52.109Z,76.59
2019-04-29T21:06:20.098Z,76.64
2019-04-29T21:08:59.154Z,76.65
2019-04-29T21:11:39.208Z,76.72
2019-04-29T21:14:34.117Z,76.84
2019-04-29T21:17:02.247Z,76.98
2019-04-29T21:19:43.302Z,77.04
2019-04-29T21:22:22.296Z,77.12
2019-04-29T21:24:53.804Z,77.26
2019-04-29T21:27:23.522Z,77.32
2019-04-29T21:29:55.411Z,77.51
2019-04-29T21:32:26.186Z,77.62
2019-04-29T21:35:14.508Z,77.62
2019-04-29T21:37:51.667Z,77.69
2019-04-29T21:40:35.145Z,77.71
2019-04-29T21:43:17.759Z,77.67
2019-04-29T21:46:02.663Z,77.59
2019-04-29T21:48:33.123Z,77.56
2019-04-29T21:50:57.016Z,77.64
2019-04-29T21:53:31.660Z,77.66
2019-04-29T21:56:06.320Z,77.67
2019-04-29T21:58:34.638Z,77.84
2019-04-29T22:01:06.062Z,77.79
2019-04-29T22:03:36.535Z,77.75
2019-04-29T22:06:24.760Z,77.68
2019-04-29T22:09:01.206Z,77.64
2019-04-29T22:11:36.161Z,77.63
2019-04-29T22:14:05.599Z,77.59
2019-04-29T22:16:36.672Z,77.66
2019-04-29T22:19:10.442Z,77.69
2019-04-29T22:22:01.678Z,77.77
2019-04-29T22:24:32.125Z,77.82
2019-04-29T22:27:05.356Z,77.89
2019-04-29T22:29:37.411Z,77.90
2019-04-29T22:32:14.470Z,77.90
2019-04-29T22:34:39.310Z,77.87
2019-04-29T22:37:25.520Z,77.86
2019-04-29T22:39:45.396Z,77.84
2019-04-29T22:42:27.740Z,77.81
2019-04-29T22:45:00.750Z,77.76
2019-04-29T22:47:31.369Z,77.69
2019-04-29T22:50:03.116Z,77.66
2019-04-29T22:52:34.851Z,77.67
2019-04-29T22:55:15.553Z,77.68
2019-04-29T22:57:46.939Z,77.73
2019-04-29T23:00:20.377Z,77.74
2019-04-29T23:02:51.199Z,77.69
2019-04-29T23:05:23.614Z,77.79
2019-04-29T23:07:56.973Z,77.71
2019-04-29T23:10:30.492Z,77.65
2019-04-29T23:13:11.100Z,77.61
2019-04-29T23:15:41.620Z,77.62
2019-04-29T23:18:23.892Z,77.54
2019-04-29T23:21:16.358Z,77.48
2019-04-29T23:24:13.304Z,77.42
2019-04-29T23:26:42.386Z,77.54
2019-04-29T23:29:12.571Z,77.65
2019-04-29T23:31:45.990Z,77.68
2019-04-29T23:34:16.578Z,77.67
2019-04-29T23:36:48.989Z,77.69
2019-04-29T23:39:25.156Z,77.62
2019-04-29T23:41:55.781Z,77.58
2019-04-29T23:44:26.500Z,77.61
2019-04-29T23:46:57.274Z,77.62
2019-04-29T23:49:35.452Z,77.62
2019-04-29T23:52:06.776Z,77.58
2019-04-29T23:54:44.158Z,77.55
2019-04-29T23:57:39.451Z,77.57
